Terminal Aerodrome Forecast
Issued by NWS

Home | Current Version | Previous Version | Text Only | Print | Product List | Glossary On
Versions: 1 2 3 4 5 6 7 8 9 10 11 12 13 14 15 16 17 18 19 20 21 22 23 24
000
FTUS43 KDLH 281000 AAA
TAFHIB
TAF AMD
KHIB 281033Z 2811/2906 14006KT P6SM VCSH SCT030 OVC060
     FM282000 12006KT P6SM VCSH OVC030
     FM290500 16008KT 6SM -PLSN OVC020=

USA.gov is the U.S. government's official web portal to all federal, state and local government web resources and services.